Moore, Texas
Current Conditions -  °F | °C
As of 7:55 AM on Saturday 25 Oct 2014 (Local Time) from KCVB Reporting Station
Clear Clear  
Wind Chill: 58°   Ceiling: Unl
Heat Index: 58°   Visibility: 10mi
Dew Point: 53°   Wind: 3mph
Humidity: 81%   Direction: 300°WNW
Pressure: 30.18"   Gusts: NA
Location:  29.06°N, 99.01°W
Report Text: KCVB 251255Z AUTO 30003KT 10SM CLR 15/12 A3018 RMK AO2 T01470115
Loading
Personal Weather Stations






























Interactive Weather Map
Tropical Storm Tracking
New forecast layout! Learn more

10-Day Weather Forecast

Advertisements
Track Severe Weather on mobile